Baltimora, MD (21206)

07:19 PM EDT del 03 Agosto 2015 (GMT -0400)
Parkville/Harris | | Change Station
CLOSE
Current Station
Stazione meteo personale
Location: Baltimore, MD
Altitudine: 351 ft
Stazioni meteo nelle vicinanze

Alt. 351 ft 39.37 °N, 76.54 °W | Updated 15 minutes ago

Molto nuvoloso
Molto nuvoloso
88.2 °F
Sembra 90 °F
N
5.8
Vento Variabile Vento da SSE

Oggi
Massima -- | Minima -- °F
--% Possibilità di precip.
Ieri
Massima -- | Minima -- °F
Precip. -- in
6:07 AM 8:16 PM
Gobba a levante, 83% visible
Pressione 29.80 in
Visibilità 10.0 miglia
Nuvole Alcuni 12000 ft
Nubi sparse 25000 ft
Indice di calore 90 °F
Punto di rugiada 64 °F
Umidità 45%
Piovosità 0.00 in
Spessore del manto nevoso Non disponibile.
Raggi UV 1 fuori da 12
Polline 7.30 fuori da 12
Qualità dell'aria Non disponibile.
Flu Activity Non disponibile.
METAR KBWI 032254Z 19007KT 10SM FEW120 SCT250 31/17 A2980 RMK AO2 SLP090 T03060172

More Conditions Fewer Conditions

Pressione 29.80 in
Visibilità 10.0 miglia
Nuvole Alcuni 12000 ft
Nubi sparse 25000 ft
Indice di calore 90 °F
Punto di rugiada 64 °F
Umidità 45%
Piovosità 0.00 in
Spessore del manto nevoso Non disponibile.
Raggi UV 1 fuori da 12
Polline 7.30 fuori da 12
Qualità dell'aria Non disponibile.
Flu Activity Non disponibile.
METAR KBWI 032254Z 19007KT 10SM FEW120 SCT250 31/17 A2980 RMK AO2 SLP090 T03060172

More Conditions Fewer Conditions

10-Day Weather Forecast

×

Almanac

Astronomia

Aug. 03, 2015 Alba Tramonto
Ora attuale
Crepuscolo civile
Crepuscolo nautico
Crepuscolo astronomico
Luna
Estensione della luce visibile
Lunghezza del giorno
Tomorrow will be .
, % of the Moon is Illuminated

Gli estremi di oggi

State Highs State Lows

Community

WunderPhotos

Upload Photos

1,843,786 foto caricate!

WunderBlogs® & News

Nearby

Qualità dell'aria

  Qualità dell'aria Indice AQ Inquinante
Not available.

Profondità neve

Stazione Profondità Altitudine

Attività sismica

Città  Distanza Mag. Data & Ora
Minimo Magnitudo Mostrato è 2.5.

Temperature delle acque costiere

Località Temperatura

Stations

Stazioni meteo nelle vicinanze

Ubicazione della stazione Temp. Raffreddamento del vento Punto di rugiada Umidità Vento Precip. Alt. Aggiornato Tipo